Time;durP1;ratioP1;P1;durP2;ratioP2;P2;SDS_P1;SDS_P2;PMS_P1;PMS_P2;Temp;Humidity;BMP_temperature;BMP_pressure;BME280_temperature;BME280_humidity;BME280_pressure;Samples;Min_cycle;Max_cycle;Signal;HPM_P1;HPM_P2
2023/01/02 00:00:06;;;;;;;4.93;1.08;;;8.60;99.90;;;;;;4999723;28;20128;-45
2023/01/02 00:02:31;;;;;;;5.40;1.15;;;8.50;99.90;;;;;;4987062;28;20058;-45
2023/01/02 00:04:57;;;;;;;6.25;1.38;;;8.50;99.90;;;;;;4978804;28;20512;-48
2023/01/02 00:07:22;;;;;;;3.28;1.00;;;8.40;99.90;;;;;;4975406;28;20089;-45
2023/01/02 00:09:48;;;;;;;5.35;1.30;;;8.40;99.90;;;;;;4979812;28;20105;-45
2023/01/02 00:12:14;;;;;;;5.20;1.70;;;8.40;99.90;;;;;;4974045;28;20085;-46
2023/01/02 00:14:39;;;;;;;3.83;1.55;;;8.40;99.90;;;;;;4972875;28;20030;-47
2023/01/02 00:17:05;;;;;;;3.25;1.50;;;8.40;99.90;;;;;;4971828;28;20089;-45
2023/01/02 00:19:30;;;;;;;3.42;1.27;;;8.40;99.90;;;;;;4971636;28;20019;-46
2023/01/02 00:21:56;;;;;;;4.25;1.17;;;8.30;99.90;;;;;;4971081;28;20034;-46
2023/01/02 00:24:21;;;;;;;5.30;1.40;;;8.40;99.90;;;;;;4972028;28;20463;-48
2023/01/02 00:26:47;;;;;;;5.72;1.50;;;8.40;99.90;;;;;;4975943;28;20050;-50
2023/01/02 00:29:13;;;;;;;6.45;1.63;;;8.30;99.90;;;;;;4973062;28;20038;-49
2023/01/02 00:31:38;;;;;;;3.47;1.33;;;8.30;99.90;;;;;;4974065;28;20026;-48
2023/01/02 00:34:04;;;;;;;3.20;1.38;;;8.30;99.90;;;;;;4972406;28;20030;-51
2023/01/02 00:36:29;;;;;;;4.15;1.50;;;8.30;99.90;;;;;;4971454;28;20078;-49
2023/01/02 00:38:55;;;;;;;6.80;2.00;;;8.20;99.90;;;;;;4971285;28;20026;-48
2023/01/02 00:41:22;;;;;;;2.90;1.48;;;8.20;99.90;;;;;;4985674;28;20363;-47
2023/01/02 00:43:47;;;;;;;5.05;1.90;;;8.20;99.90;;;;;;4991365;28;20513;-47
2023/01/02 00:46:14;;;;;;;4.00;1.90;;;8.10;99.90;;;;;;4991472;28;20065;-50
2023/01/02 00:48:40;;;;;;;5.03;1.63;;;8.10;99.90;;;;;;4991275;28;20026;-46
2023/01/02 00:51:06;;;;;;;2.95;1.50;;;8.00;99.90;;;;;;4991416;28;20033;-50
2023/01/02 00:53:32;;;;;;;4.22;2.30;;;8.00;99.90;;;;;;4991102;28;20027;-49
2023/01/02 00:55:57;;;;;;;5.03;1.92;;;7.90;99.90;;;;;;4991252;28;20069;-48
2023/01/02 00:58:23;;;;;;;8.73;2.33;;;7.90;99.90;;;;;;4991468;28;20117;-49
2023/01/02 01:00:49;;;;;;;5.53;2.10;;;7.90;99.90;;;;;;4991306;28;20114;-50
2023/01/02 01:03:15;;;;;;;9.13;2.33;;;7.80;99.90;;;;;;4999132;28;20025;-48
2023/01/02 01:05:41;;;;;;;5.85;2.15;;;7.80;99.90;;;;;;5010747;28;20084;-46
2023/01/02 01:08:06;;;;;;;6.55;2.17;;;7.80;99.90;;;;;;5011019;28;20021;-46
2023/01/02 01:10:34;;;;;;;5.82;2.30;;;7.80;99.90;;;;;;5000079;28;20027;-46
2023/01/02 01:12:59;;;;;;;7.45;2.67;;;7.70;99.90;;;;;;5009226;28;20030;-46
2023/01/02 01:15:25;;;;;;;7.38;2.50;;;7.70;99.90;;;;;;5011016;28;20041;-49
2023/01/02 01:17:50;;;;;;;7.80;2.40;;;7.70;99.90;;;;;;5010600;28;20046;-46
2023/01/02 01:20:16;;;;;;;6.57;2.00;;;7.70;99.90;;;;;;5010729;28;20018;-46
2023/01/02 01:22:42;;;;;;;10.85;2.58;;;7.70;99.90;;;;;;5010695;28;20025;-45
2023/01/02 01:25:08;;;;;;;8.35;2.35;;;7.60;99.90;;;;;;5010630;28;20022;-46
2023/01/02 01:27:34;;;;;;;6.75;2.58;;;7.70;99.90;;;;;;5010584;28;20104;-46
2023/01/02 01:29:59;;;;;;;5.88;2.28;;;7.60;99.90;;;;;;4993459;28;20021;-46
2023/01/02 01:32:27;;;;;;;4.38;1.70;;;7.60;99.90;;;;;;5010837;28;20560;-47
2023/01/02 01:34:52;;;;;;;4.63;1.52;;;7.60;99.90;;;;;;5010555;28;20014;-51
2023/01/02 01:37:18;;;;;;;7.40;1.73;;;7.60;99.90;;;;;;5010677;28;20034;-47
2023/01/02 01:39:43;;;;;;;4.03;1.67;;;7.60;99.90;;;;;;5010350;28;20076;-48
2023/01/02 01:42:12;;;;;;;7.85;2.10;;;7.50;99.90;;;;;;5010665;28;20425;-50
2023/01/02 01:44:53;;;;;;;6.70;2.30;;;7.50;99.90;;;;;;5010424;28;20388;-46
2023/01/02 01:47:46;;;;;;;5.75;1.92;;;7.50;99.90;;;;;;5011455;28;20044;-49
2023/01/02 01:50:17;;;;;;;6.55;2.20;;;7.60;99.90;;;;;;5014211;28;20038;-48
2023/01/02 01:52:53;;;;;;;4.07;1.73;;;7.60;99.90;;;;;;4997351;28;20025;-47
2023/01/02 01:55:31;;;;;;;7.45;1.70;;;7.50;99.90;;;;;;5013986;28;20593;-48
2023/01/02 01:58:04;;;;;;;5.57;1.75;;;7.60;99.90;;;;;;5014101;28;20108;-46
2023/01/02 02:00:30;;;;;;;4.65;1.63;;;7.60;99.90;;;;;;4988101;28;20018;-47
2023/01/02 02:03:00;;;;;;;5.07;1.88;;;7.60;99.90;;;;;;5014140;28;20030;-46
2023/01/02 02:05:28;;;;;;;;;;;7.60;99.90;;;;;;5014507;28;20149;-46
2023/01/02 02:08:16;;;;;;;4.25;1.42;;;7.50;99.90;;;;;;5013859;28;19905;-46
2023/01/02 02:10:42;;;;;;;4.00;1.80;;;7.50;99.90;;;;;;5013832;28;20076;-46
2023/01/02 02:13:08;;;;;;;4.30;1.13;;;7.50;99.90;;;;;;5013808;28;20271;-46
2023/01/02 02:16:09;;;;;;;4.45;1.55;;;7.50;99.90;;;;;;5013894;28;20030;-49
2023/01/02 02:19:42;;;;;;;6.32;1.50;;;7.40;99.90;;;;;;4988439;28;20066;-46
2023/01/02 02:22:34;;;;;;;4.82;1.77;;;7.40;99.90;;;;;;4953326;29;20173;-54
2023/01/02 02:25:21;;;;;;;7.00;1.77;;;7.30;99.90;;;;;;4942986;29;20032;-52
2023/01/02 02:28:15;;;;;;;5.68;1.33;;;7.20;99.90;;;;;;4981060;28;20038;-49
2023/01/02 02:31:08;;;;;;;5.05;1.40;;;7.10;99.90;;;;;;4985817;28;20098;-49
2023/01/02 02:33:44;;;;;;;4.50;1.15;;;7.10;99.90;;;;;;4983190;28;20034;-50
2023/01/02 02:36:36;;;;;;;5.03;1.23;;;7.00;99.90;;;;;;4986964;28;20477;-46
2023/01/02 02:39:28;;;;;;;4.75;1.20;;;7.00;99.90;;;;;;4993444;28;20474;-45
2023/01/02 02:42:28;;;;;;;5.00;1.55;;;6.90;99.90;;;;;;4993741;28;20484;-45
2023/01/02 02:45:42;;;;;;;6.57;1.25;;;6.90;99.90;;;;;;4988709;28;20036;-45
2023/01/02 02:48:32;;;;;;;2.20;1.13;;;6.90;99.90;;;;;;4928229;28;20489;-45
2023/01/02 02:51:14;;;;;;;3.17;1.02;;;6.90;99.90;;;;;;4993555;28;20110;-53
2023/01/02 02:53:49;;;;;;;7.20;1.33;;;6.80;99.90;;;;;;4993076;28;20481;-50
2023/01/02 02:56:17;;;;;;;5.28;1.40;;;6.80;99.90;;;;;;4988483;28;20529;-47
2023/01/02 02:58:43;;;;;;;3.33;1.15;;;6.80;99.90;;;;;;4976066;28;20078;-48
2023/01/02 03:01:15;;;;;;;5.03;1.88;;;6.80;99.90;;;;;;4975830;28;20195;-48
2023/01/02 03:03:40;;;;;;;5.63;1.48;;;6.80;99.90;;;;;;5004526;28;20463;-45
2023/01/02 03:06:12;;;;;;;7.63;1.60;;;6.80;99.90;;;;;;5012732;28;20032;-46
2023/01/02 03:09:10;;;;;;;6.40;1.40;;;6.80;99.90;;;;;;5012253;28;20045;-46
2023/01/02 03:11:45;;;;;;;2.65;1.20;;;6.90;99.90;;;;;;4995183;28;20089;-45
2023/01/02 03:14:29;;;;;;;5.50;1.60;;;6.90;99.90;;;;;;5012318;28;20033;-45
2023/01/02 03:17:09;;;;;;;4.38;1.58;;;7.00;99.90;;;;;;5012442;28;20076;-45
2023/01/02 03:19:48;;;;;;;4.70;1.33;;;7.10;99.90;;;;;;5012640;28;20053;-50
2023/01/02 03:22:28;;;;;;;6.53;1.42;;;7.10;99.90;;;;;;5012438;28;20028;-47
2023/01/02 03:24:55;;;;;;;2.53;1.23;;;7.10;99.90;;;;;;5011853;28;20026;-49
2023/01/02 03:27:28;;;;;;;2.97;1.08;;;7.20;99.90;;;;;;5011955;28;20081;-49
2023/01/02 03:29:59;;;;;;;4.43;1.48;;;7.20;99.90;;;;;;5012325;28;20089;-48
2023/01/02 03:32:34;;;;;;;3.40;1.85;;;7.20;99.90;;;;;;5012047;28;20025;-48
2023/01/02 03:35:05;;;;;;;4.95;1.23;;;7.20;99.90;;;;;;5002773;28;20401;-47
2023/01/02 03:37:35;;;;;;;4.68;1.20;;;7.10;99.90;;;;;;4989429;28;20041;-53
2023/01/02 03:40:07;;;;;;;4.78;1.58;;;7.10;99.90;;;;;;4992026;28;20030;-51
2023/01/02 03:42:52;;;;;;;3.90;1.40;;;7.10;99.90;;;;;;4993953;28;20034;-46
2023/01/02 03:45:26;;;;;;;2.47;1.17;;;7.10;99.90;;;;;;4989548;28;20046;-47
2023/01/02 03:48:15;;;;;;;6.32;1.42;;;7.00;99.90;;;;;;4987456;28;20133;-47
2023/01/02 03:50:51;;;;;;;3.50;1.38;;;7.00;99.90;;;;;;4980585;28;20028;-51
2023/01/02 03:53:18;;;;;;;6.95;1.70;;;7.00;99.90;;;;;;4991868;28;20025;-47
2023/01/02 03:55:54;;;;;;;5.65;1.60;;;7.00;99.90;;;;;;4991800;28;20406;-47
2023/01/02 03:58:31;;;;;;;4.47;1.58;;;6.90;99.90;;;;;;4975733;28;20030;-48
2023/01/02 04:01:11;;;;;;;5.60;1.88;;;6.90;99.90;;;;;;4984363;28;20038;-51
2023/01/02 04:03:55;;;;;;;7.53;1.40;;;7.00;99.90;;;;;;4979916;28;20027;-46
2023/01/02 04:06:27;;;;;;;3.80;1.30;;;6.90;99.90;;;;;;4986254;28;20106;-52
2023/01/02 04:09:08;;;;;;;2.88;1.63;;;6.90;99.90;;;;;;4985843;28;20038;-47
2023/01/02 04:11:36;;;;;;;5.65;1.40;;;6.90;99.90;;;;;;4987617;28;20019;-46
2023/01/02 04:14:15;;;;;;;6.85;1.35;;;6.90;99.90;;;;;;4989815;28;20390;-46
2023/01/02 04:16:44;;;;;;;5.10;2.13;;;6.90;99.90;;;;;;4978572;28;20379;-46
2023/01/02 04:19:27;;;;;;;6.53;1.45;;;6.90;99.90;;;;;;4989549;28;20146;-52
2023/01/02 04:21:58;;;;;;;6.47;1.20;;;6.90;99.90;;;;;;4984205;28;20157;-46
2023/01/02 04:24:30;;;;;;;4.78;1.30;;;6.80;99.90;;;;;;4991640;28;20022;-51
2023/01/02 04:27:02;;;;;;;5.88;1.35;;;6.80;99.90;;;;;;4991739;28;20046;-48
2023/01/02 04:29:29;;;;;;;5.82;1.60;;;6.80;99.90;;;;;;4991786;28;20022;-53
2023/01/02 04:32:01;;;;;;;4.28;1.20;;;6.80;99.90;;;;;;4991610;28;20038;-46
2023/01/02 04:34:31;;;;;;;3.47;1.30;;;6.80;99.90;;;;;;4991541;28;20441;-52
2023/01/02 04:36:56;;;;;;;5.00;1.48;;;6.90;99.90;;;;;;4991465;28;20089;-54
2023/01/02 04:39:23;;;;;;;5.13;1.35;;;6.80;99.90;;;;;;4991219;28;20026;-48
2023/01/02 04:41:49;;;;;;;3.47;1.00;;;6.90;99.90;;;;;;4990736;28;20389;-46
2023/01/02 04:44:14;;;;;;;8.13;1.70;;;6.90;99.90;;;;;;4991215;28;20038;-55
2023/01/02 04:46:40;;;;;;;5.82;1.23;;;6.90;99.90;;;;;;4991496;28;20026;-48
2023/01/02 04:49:05;;;;;;;4.57;1.42;;;6.90;99.90;;;;;;4991488;28;20029;-50
2023/01/02 04:51:31;;;;;;;6.97;1.25;;;7.00;99.90;;;;;;4991557;28;20061;-49
2023/01/02 04:53:57;;;;;;;5.85;1.48;;;7.10;99.90;;;;;;4991260;28;20105;-45
2023/01/02 04:56:22;;;;;;;4.88;1.10;;;7.10;99.90;;;;;;4991537;28;20031;-48
2023/01/02 04:58:48;;;;;;;5.10;1.30;;;7.20;99.90;;;;;;4991252;28;20073;-49
2023/01/02 05:01:16;;;;;;;5.47;1.30;;;7.20;99.90;;;;;;4991445;28;20086;-50
2023/01/02 05:03:44;;;;;;;4.88;1.23;;;7.20;99.90;;;;;;4991585;28;20425;-46
2023/01/02 05:06:10;;;;;;;3.42;1.10;;;7.10;99.90;;;;;;4991454;28;20034;-46
2023/01/02 05:08:36;;;;;;;5.53;1.13;;;7.00;99.90;;;;;;4991154;28;20037;-45
2023/01/02 05:11:12;;;;;;;4.72;0.95;;;7.00;99.90;;;;;;4990800;28;20105;-45
2023/01/02 05:13:38;;;;;;;4.25;0.98;;;7.00;99.90;;;;;;4991039;28;20027;-50
2023/01/02 05:16:04;;;;;;;5.93;0.88;;;7.00;99.90;;;;;;4990782;28;20367;-47
2023/01/02 05:18:30;;;;;;;3.22;0.82;;;7.00;99.90;;;;;;4991323;28;20092;-54
2023/01/02 05:21:05;;;;;;;4.40;1.58;;;7.10;99.90;;;;;;4991286;28;20022;-51
2023/01/02 05:23:49;;;;;;;5.85;1.15;;;7.10;99.90;;;;;;4994169;28;20060;-49
2023/01/02 05:26:16;;;;;;;5.57;0.95;;;7.10;99.90;;;;;;4994780;28;20050;-48
2023/01/02 05:28:42;;;;;;;4.13;1.00;;;7.20;99.90;;;;;;4994860;28;20543;-46
2023/01/02 05:31:08;;;;;;;6.70;1.05;;;7.20;99.90;;;;;;4994782;28;20105;-52
2023/01/02 05:33:34;;;;;;;4.75;1.20;;;7.20;99.90;;;;;;4994910;28;20030;-48
2023/01/02 05:36:00;;;;;;;4.85;0.98;;;7.30;99.90;;;;;;4994600;28;20388;-47
2023/01/02 05:38:26;;;;;;;5.13;1.10;;;7.30;99.90;;;;;;4980678;28;20030;-46
2023/01/02 05:41:03;;;;;;;7.93;1.17;;;7.30;99.90;;;;;;4994559;28;20053;-46
2023/01/02 05:43:31;;;;;;;6.57;1.10;;;7.40;99.90;;;;;;4994693;28;20114;-46
2023/01/02 05:45:56;;;;;;;6.70;0.80;;;7.50;99.90;;;;;;4994781;28;20027;-46
2023/01/02 05:48:22;;;;;;;4.18;1.08;;;7.50;99.90;;;;;;4994279;28;20046;-46
2023/01/02 05:50:48;;;;;;;6.07;1.02;;;7.50;99.90;;;;;;4994451;28;20509;-46
2023/01/02 05:53:13;;;;;;;7.63;1.25;;;7.60;99.90;;;;;;4994154;28;20025;-46
2023/01/02 05:55:39;;;;;;;7.30;1.17;;;7.60;99.90;;;;;;4993826;28;20033;-46
2023/01/02 05:58:04;;;;;;;6.18;1.20;;;7.70;99.90;;;;;;4985831;28;20507;-51
2023/01/02 06:00:30;;;;;;;3.70;0.80;;;7.80;99.90;;;;;;4992190;28;20058;-48
2023/01/02 06:02:56;;;;;;;8.27;1.33;;;7.80;99.90;;;;;;4993579;28;20097;-53
2023/01/02 06:05:21;;;;;;;5.03;0.77;;;7.90;99.90;;;;;;4993944;28;20489;-49
2023/01/02 06:07:47;;;;;;;6.45;1.45;;;7.90;99.90;;;;;;4987278;28;20050;-48
2023/01/02 06:10:12;;;;;;;5.80;0.77;;;7.90;99.90;;;;;;4993716;28;20386;-52
2023/01/02 06:12:38;;;;;;;7.85;1.10;;;7.90;99.90;;;;;;4993847;28;20103;-46
2023/01/02 06:15:04;;;;;;;5.80;0.88;;;8.00;99.90;;;;;;4993756;28;20142;-47
2023/01/02 06:17:29;;;;;;;11.57;1.00;;;8.00;99.90;;;;;;4993632;28;20397;-46
2023/01/02 06:19:55;;;;;;;10.10;2.17;;;8.00;99.90;;;;;;4994063;28;20033;-51
2023/01/02 06:22:20;;;;;;;8.80;1.27;;;8.00;99.90;;;;;;4989891;28;20061;-46
2023/01/02 06:24:46;;;;;;;10.40;1.20;;;8.10;99.90;;;;;;4993960;28;20020;-50
2023/01/02 06:27:12;;;;;;;8.15;1.17;;;8.10;99.90;;;;;;4993718;28;20046;-46
2023/01/02 06:29:37;;;;;;;5.40;0.93;;;8.10;99.90;;;;;;4993866;28;20034;-48
2023/01/02 06:32:03;;;;;;;12.68;1.40;;;8.10;99.90;;;;;;4993883;28;20072;-49
2023/01/02 06:34:29;;;;;;;3.65;1.00;;;8.10;99.90;;;;;;4993705;28;20029;-49
2023/01/02 06:36:54;;;;;;;10.43;1.00;;;8.10;99.90;;;;;;4993526;28;20093;-46
2023/01/02 06:39:20;;;;;;;8.65;0.63;;;8.10;99.90;;;;;;4992922;28;20031;-54
2023/01/02 06:41:45;;;;;;;3.83;0.70;;;8.10;99.90;;;;;;4993355;28;20113;-47
2023/01/02 06:44:12;;;;;;;6.57;1.77;;;8.10;99.90;;;;;;4993212;28;20050;-49
2023/01/02 06:46:38;;;;;;;5.28;1.05;;;8.00;99.90;;;;;;4993502;28;20386;-49
2023/01/02 06:49:03;;;;;;;4.10;0.70;;;8.00;99.90;;;;;;4993437;28;20029;-45
2023/01/02 06:51:29;;;;;;;5.88;0.80;;;8.00;99.90;;;;;;4976261;28;20034;-49
2023/01/02 06:53:55;;;;;;;6.53;1.00;;;8.00;99.90;;;;;;4993232;28;20105;-50
2023/01/02 06:56:21;;;;;;;5.60;1.10;;;7.90;99.90;;;;;;4993219;28;20062;-46
2023/01/02 06:58:47;;;;;;;9.77;0.93;;;7.80;99.90;;;;;;4993007;28;20725;-53
2023/01/02 07:01:16;;;;;;;3.83;0.90;;;7.80;99.90;;;;;;4993352;28;20031;-46
2023/01/02 07:03:42;;;;;;;2.63;0.67;;;7.80;99.90;;;;;;4993297;28;20078;-46
2023/01/02 07:06:13;;;;;;;3.90;0.65;;;7.80;99.90;;;;;;4993288;28;20050;-47
2023/01/02 07:08:40;;;;;;;2.75;0.40;;;7.80;99.90;;;;;;4993108;28;20086;-46
2023/01/02 07:11:11;;;;;;;7.00;0.80;;;7.70;99.90;;;;;;4993226;28;20061;-48
2023/01/02 07:13:38;;;;;;;3.22;1.02;;;7.70;99.90;;;;;;4992916;28;20026;-53
2023/01/02 07:16:05;;;;;;;7.10;1.98;;;7.70;99.90;;;;;;4993033;28;20490;-49
2023/01/02 07:18:32;;;;;;;2.92;0.88;;;7.70;99.90;;;;;;4993073;28;20226;-46
2023/01/02 07:20:58;;;;;;;4.43;0.85;;;7.60;99.90;;;;;;4992824;28;20070;-47
2023/01/02 07:23:24;;;;;;;6.55;1.08;;;7.60;99.90;;;;;;4993066;28;20525;-46
2023/01/02 07:25:53;;;;;;;7.00;0.95;;;7.60;99.90;;;;;;4992688;28;20133;-48
2023/01/02 07:28:18;;;;;;;6.82;1.13;;;7.50;99.90;;;;;;4993189;28;20027;-50
2023/01/02 07:30:44;;;;;;;3.85;0.70;;;7.50;99.90;;;;;;4992586;28;20481;-48
2023/01/02 07:33:09;;;;;;;3.30;0.70;;;7.50;99.90;;;;;;4992827;28;20054;-50
2023/01/02 07:35:35;;;;;;;4.78;1.05;;;7.50;99.90;;;;;;4992605;28;20034;-47
2023/01/02 07:38:00;;;;;;;5.35;0.77;;;7.50;99.90;;;;;;4975240;28;20066;-46
2023/01/02 07:40:26;;;;;;;5.55;0.80;;;7.50;99.90;;;;;;4992932;28;20026;-46
2023/01/02 07:42:53;;;;;;;2.65;0.60;;;7.50;99.90;;;;;;4992623;28;20456;-46
2023/01/02 07:45:18;;;;;;;5.60;0.70;;;7.40;99.90;;;;;;4974587;28;20054;-46
2023/01/02 07:47:44;;;;;;;4.00;0.60;;;7.40;99.90;;;;;;4992575;28;20073;-48
2023/01/02 07:50:10;;;;;;;4.32;0.80;;;7.40;99.90;;;;;;4992476;28;20363;-47
2023/01/02 07:52:35;;;;;;;7.35;0.98;;;7.40;99.90;;;;;;4992624;28;20367;-46
2023/01/02 07:55:01;;;;;;;4.07;0.93;;;7.40;99.90;;;;;;4992336;28;20092;-46
2023/01/02 07:57:30;;;;;;;10.15;0.85;;;7.40;99.90;;;;;;4992098;28;20046;-49
2023/01/02 07:59:56;;;;;;;7.85;0.95;;;7.50;99.90;;;;;;4991783;28;20026;-46
2023/01/02 08:02:21;;;;;;;3.90;0.77;;;7.50;99.90;;;;;;4992040;28;20026;-47
2023/01/02 08:04:47;;;;;;;7.93;0.98;;;7.50;99.90;;;;;;4992206;28;20434;-46
2023/01/02 08:07:13;;;;;;;5.35;0.60;;;7.60;99.90;;;;;;4992232;28;20030;-47
2023/01/02 08:09:38;;;;;;;5.18;1.17;;;7.50;99.90;;;;;;4992280;28;20068;-54
2023/01/02 08:12:04;;;;;;;5.68;0.60;;;7.50;99.90;;;;;;4992603;28;20061;-49
2023/01/02 08:14:30;;;;;;;4.68;0.70;;;7.50;99.90;;;;;;4992312;28;20084;-48
2023/01/02 08:16:55;;;;;;;4.25;1.27;;;7.50;99.90;;;;;;4991944;28;20146;-46
2023/01/02 08:19:21;;;;;;;3.08;0.90;;;7.50;99.90;;;;;;4974274;28;20498;-49
2023/01/02 08:21:46;;;;;;;8.68;1.25;;;7.50;99.90;;;;;;4991722;28;20037;-51
2023/01/02 08:24:12;;;;;;;8.70;0.88;;;7.50;99.90;;;;;;4991635;28;20429;-46
2023/01/02 08:26:38;;;;;;;6.38;0.80;;;7.60;99.90;;;;;;4991649;28;20078;-48
2023/01/02 08:29:03;;;;;;;4.85;1.25;;;7.60;99.90;;;;;;4991269;28;20141;-48
2023/01/02 08:31:29;;;;;;;7.05;1.50;;;7.60;99.90;;;;;;4991415;28;20088;-52
2023/01/02 08:33:55;;;;;;;8.82;1.85;;;7.70;99.90;;;;;;4991444;28;20065;-45
2023/01/02 08:36:20;;;;;;;5.43;1.17;;;7.70;99.90;;;;;;4986161;28;20026;-53
2023/01/02 08:38:46;;;;;;;4.57;0.90;;;7.70;99.90;;;;;;4991516;28;20026;-48
2023/01/02 08:41:12;;;;;;;7.03;1.73;;;7.80;99.90;;;;;;4991207;28;20117;-49
2023/01/02 08:43:38;;;;;;;4.80;1.52;;;7.80;99.90;;;;;;4991371;28;20029;-46
2023/01/02 08:46:05;;;;;;;10.02;1.15;;;8.00;99.90;;;;;;4991278;28;20018;-50
2023/01/02 08:48:31;;;;;;;6.43;1.67;;;8.00;99.90;;;;;;4991435;28;20101;-45
2023/01/02 08:50:57;;;;;;;5.07;1.58;;;8.10;99.90;;;;;;4991325;28;20129;-53
2023/01/02 08:53:22;;;;;;;6.03;2.00;;;8.20;99.90;;;;;;4991051;28;20458;-46
2023/01/02 08:55:48;;;;;;;4.88;2.00;;;8.30;99.90;;;;;;4991217;28;20457;-50
2023/01/02 08:58:13;;;;;;;5.13;1.90;;;8.30;99.90;;;;;;4990469;28;20042;-49
2023/01/02 09:00:39;;;;;;;18.83;2.25;;;8.40;99.90;;;;;;4991209;28;20022;-48
2023/01/02 09:03:05;;;;;;;8.63;4.18;;;8.50;99.90;;;;;;4974014;28;20022;-46
2023/01/02 09:05:30;;;;;;;11.15;3.13;;;8.60;99.90;;;;;;4991330;28;20014;-47
2023/01/02 09:07:57;;;;;;;8.07;3.88;;;8.60;99.90;;;;;;4991333;28;20034;-45
2023/01/02 09:10:22;;;;;;;7.53;1.73;;;8.60;99.90;;;;;;4991454;28;20073;-45
2023/01/02 09:12:48;;;;;;;6.03;1.63;;;8.80;99.90;;;;;;4991143;28;20027;-45
2023/01/02 09:15:14;;;;;;;6.70;1.42;;;8.90;99.90;;;;;;4991255;28;20026;-45
2023/01/02 09:17:39;;;;;;;11.25;1.40;;;9.00;99.90;;;;;;4990978;28;20066;-45
2023/01/02 09:20:05;;;;;;;5.63;1.15;;;9.20;99.90;;;;;;4991300;28;20030;-48
2023/01/02 09:22:31;;;;;;;9.85;0.98;;;9.30;99.90;;;;;;4991319;28;20045;-47
2023/01/02 09:24:56;;;;;;;5.95;1.10;;;9.60;99.90;;;;;;4991334;28;20466;-46
2023/01/02 09:27:22;;;;;;;9.88;1.55;;;9.80;99.90;;;;;;4990653;28;20430;-48
2023/01/02 09:29:48;;;;;;;7.00;0.98;;;9.80;99.90;;;;;;4990808;28;20105;-46
2023/01/02 09:32:13;;;;;;;9.68;1.13;;;9.80;99.90;;;;;;4991014;28;20030;-45
2023/01/02 09:34:39;;;;;;;5.63;0.65;;;9.70;99.90;;;;;;4990648;28;20026;-50
2023/01/02 09:37:04;;;;;;;3.65;0.90;;;9.60;99.90;;;;;;4990804;28;20038;-47
2023/01/02 09:39:30;;;;;;;6.63;1.08;;;9.50;99.90;;;;;;4990814;28;20038;-47
2023/01/02 09:41:59;;;;;;;6.55;0.95;;;9.30;99.90;;;;;;4990927;28;20118;-51
2023/01/02 09:44:43;;;;;;;3.17;1.02;;;9.20;99.90;;;;;;4990827;28;20030;-48
2023/01/02 09:47:12;;;;;;;6.28;1.05;;;9.10;99.90;;;;;;4991142;28;20625;-46
2023/01/02 09:49:45;;;;;;;;;;;9.00;99.90;;;;;;4991405;28;20023;-45
2023/01/02 09:52:24;;;;;;;7.25;1.50;;;9.10;99.90;;;;;;4990974;28;20021;-45
2023/01/02 09:54:50;;;;;;;;;;;9.00;99.90;;;;;;4991180;28;20022;-51
2023/01/02 09:57:28;;;;;;;5.90;1.02;;;9.10;99.90;;;;;;4990395;28;20021;-45
2023/01/02 10:00:02;;;;;;;5.00;1.10;;;9.10;99.90;;;;;;4990987;28;20037;-46
2023/01/02 10:02:46;;;;;;;9.27;1.20;;;9.10;99.90;;;;;;4977184;28;20098;-45
2023/01/02 10:05:32;;;;;;;9.45;1.00;;;9.20;99.90;;;;;;4989587;28;20031;-48
2023/01/02 10:08:11;;;;;;;5.63;0.80;;;9.10;99.90;;;;;;4990346;28;20031;-48
2023/01/02 10:10:40;;;;;;;6.30;1.17;;;9.10;99.90;;;;;;4994380;28;20068;-49
2023/01/02 10:13:17;;;;;;;7.53;1.27;;;9.10;99.90;;;;;;4994144;28;20061;-50
2023/01/02 10:15:49;;;;;;;9.93;1.33;;;9.20;99.90;;;;;;4993942;28;20024;-54
2023/01/02 10:18:34;;;;;;;6.80;1.10;;;9.50;99.90;;;;;;4993940;28;20050;-45
2023/01/02 10:21:12;;;;;;;7.90;1.10;;;10.60;99.90;;;;;;4994059;28;20097;-46
2023/01/02 10:24:12;;;;;;;4.93;1.20;;;12.30;99.90;;;;;;4994165;28;20037;-45
2023/01/02 10:26:42;;;;;;;5.88;1.00;;;14.30;99.90;;;;;;4989182;28;20069;-48
2023/01/02 10:29:34;;;;;;;4.32;0.88;;;15.00;99.90;;;;;;4993760;28;20113;-46
2023/01/02 10:32:10;;;;;;;7.70;1.20;;;14.20;99.90;;;;;;4990038;28;20042;-46
2023/01/02 10:34:41;;;;;;;7.32;1.20;;;12.80;99.90;;;;;;4993765;28;20568;-49
2023/01/02 10:37:14;;;;;;;5.90;1.20;;;11.90;99.90;;;;;;4993874;28;20081;-51
2023/01/02 10:39:42;;;;;;;7.53;1.30;;;11.10;99.90;;;;;;4993693;28;20029;-45
2023/01/02 10:42:11;;;;;;;6.03;1.50;;;10.90;99.90;;;;;;4993625;28;20030;-46
2023/01/02 10:44:38;;;;;;;6.22;1.08;;;11.70;99.90;;;;;;4993459;28;20033;-46
2023/01/02 10:47:32;;;;;;;6.30;0.98;;;13.50;99.90;;;;;;4993569;28;20033;-47
2023/01/02 10:49:58;;;;;;;7.88;1.20;;;15.50;99.90;;;;;;4993399;28;20100;-48
2023/01/02 10:52:30;;;;;;;5.25;1.10;;;17.00;99.90;;;;;;4993676;28;20389;-51
2023/01/02 10:54:57;;;;;;;6.15;1.42;;;17.80;97.70;;;;;;4983312;28;20444;-48
2023/01/02 10:57:42;;;;;;;1.73;0.77;;;18.60;96.80;;;;;;4985050;28;20107;-51
2023/01/02 11:00:16;;;;;;;4.82;1.55;;;19.20;92.10;;;;;;4992581;28;20097;-44
2023/01/02 11:02:48;;;;;;;6.20;1.45;;;19.10;92.80;;;;;;4986920;28;20027;-45
2023/01/02 11:05:23;;;;;;;5.75;1.15;;;19.50;90.50;;;;;;4988190;28;20477;-45
2023/01/02 11:07:51;;;;;;;5.28;1.00;;;19.50;91.20;;;;;;4990028;28;20051;-51
2023/01/02 11:10:27;;;;;;;5.78;1.30;;;20.40;86.70;;;;;;4989050;28;20084;-47
2023/01/02 11:12:52;;;;;;;7.07;1.10;;;20.90;86.80;;;;;;4991787;28;20121;-48
2023/01/02 11:15:25;;;;;;;6.30;0.95;;;21.60;84.80;;;;;;4987892;28;20093;-46
2023/01/02 11:17:51;;;;;;;6.68;1.25;;;21.70;81.20;;;;;;4986523;28;20374;-53
2023/01/02 11:20:29;;;;;;;7.07;1.20;;;22.70;77.10;;;;;;4979959;28;20015;-52
2023/01/02 11:22:57;;;;;;;5.18;1.25;;;22.90;73.30;;;;;;4979579;28;20563;-48
2023/01/02 11:25:39;;;;;;;4.50;1.17;;;22.70;72.00;;;;;;4985986;28;20062;-46
2023/01/02 11:28:12;;;;;;;3.95;1.20;;;22.70;72.40;;;;;;4989696;28;20052;-44
2023/01/02 11:30:44;;;;;;;5.05;1.38;;;22.30;70.30;;;;;;4992010;28;20478;-45
2023/01/02 11:33:13;;;;;;;4.45;1.15;;;22.30;71.50;;;;;;4987875;28;20037;-53
2023/01/02 11:35:47;;;;;;;3.08;1.00;;;22.40;74.00;;;;;;4985915;28;20034;-47
2023/01/02 11:38:16;;;;;;;3.75;0.98;;;23.30;71.90;;;;;;4990570;28;20038;-49
2023/01/02 11:41:00;;;;;;;4.20;1.08;;;23.50;68.30;;;;;;4991803;28;20050;-48
2023/01/02 11:43:47;;;;;;;3.38;0.93;;;23.10;66.80;;;;;;4989599;28;20100;-45
2023/01/02 11:46:34;;;;;;;4.53;1.20;;;22.60;68.20;;;;;;4987296;28;20062;-45
2023/01/02 11:49:10;;;;;;;4.20;1.35;;;21.40;68.20;;;;;;4990864;28;20509;-45
2023/01/02 11:51:38;;;;;;;5.05;1.35;;;20.90;72.70;;;;;;4990531;28;20038;-45
2023/01/02 11:54:13;;;;;;;3.35;1.05;;;21.10;69.90;;;;;;4990928;28;20022;-47
2023/01/02 11:56:42;;;;;;;3.78;1.10;;;21.10;70.10;;;;;;4982428;28;20061;-48
2023/01/02 11:59:20;;;;;;;3.70;0.93;;;21.00;68.60;;;;;;4982613;28;20117;-46
2023/01/02 12:01:51;;;;;;;4.30;1.10;;;20.80;69.20;;;;;;4985239;28;20034;-48
2023/01/02 12:04:17;;;;;;;4.07;0.98;;;20.70;69.10;;;;;;4988204;28;20019;-45
2023/01/02 12:07:07;;;;;;;5.15;1.00;;;20.60;69.70;;;;;;4991454;28;20037;-47
2023/01/02 12:09:52;;;;;;;5.38;1.10;;;20.30;71.20;;;;;;4989867;28;20038;-48
2023/01/02 12:12:23;;;;;;;6.57;1.45;;;19.80;71.90;;;;;;4991220;28;20018;-51
2023/01/02 12:15:08;;;;;;;4.72;1.05;;;19.70;72.70;;;;;;4989569;28;20015;-46
2023/01/02 12:17:54;;;;;;;4.20;0.95;;;19.40;72.80;;;;;;4996708;28;20042;-48
2023/01/02 12:20:48;;;;;;;3.60;1.00;;;19.50;75.40;;;;;;4987516;28;20026;-45
2023/01/02 12:23:50;;;;;;;4.30;1.10;;;19.80;70.80;;;;;;4992793;28;20030;-48
2023/01/02 12:26:24;;;;;;;4.95;1.05;;;18.90;73.80;;;;;;4992362;28;20049;-53
2023/01/02 12:29:07;;;;;;;3.03;1.08;;;17.80;76.90;;;;;;4999190;28;20436;-48
2023/01/02 12:31:51;;;;;;;5.60;1.42;;;17.90;75.40;;;;;;4994999;28;20473;-50
2023/01/02 12:34:34;;;;;;;3.67;1.70;;;17.00;77.20;;;;;;4996185;28;20101;-56
2023/01/02 12:37:18;;;;;;;5.68;2.00;;;16.00;81.10;;;;;;4983599;28;20076;-44
2023/01/02 12:40:03;;;;;;;4.47;1.70;;;17.00;82.10;;;;;;4993214;28;20061;-45
2023/01/02 12:42:34;;;;;;;4.22;1.48;;;18.20;76.10;;;;;;4987813;28;20072;-48
2023/01/02 12:45:00;;;;;;;3.97;1.52;;;18.30;76.90;;;;;;4990433;28;20074;-51
2023/01/02 12:47:31;;;;;;;3.30;1.30;;;18.90;75.20;;;;;;4990728;28;20027;-44
2023/01/02 12:50:22;;;;;;;3.83;1.35;;;19.70;73.90;;;;;;4999951;28;20041;-47
2023/01/02 12:53:14;;;;;;;3.15;1.20;;;19.30;72.70;;;;;;4999068;28;20477;-44
2023/01/02 12:56:28;;;;;;;4.25;1.38;;;19.70;76.30;;;;;;4970363;28;20034;-48
2023/01/02 12:59:35;;;;;;;3.28;1.15;;;21.30;69.20;;;;;;4925821;29;20601;-47
2023/01/02 13:02:18;;;;;;;4.70;1.40;;;22.10;68.70;;;;;;4991383;28;20111;-45
2023/01/02 13:04:59;;;;;;;3.78;1.40;;;23.00;68.70;;;;;;4988852;28;20026;-51
2023/01/02 13:07:33;;;;;;;4.38;1.38;;;22.90;63.30;;;;;;4989273;28;20022;-49
2023/01/02 13:10:04;;;;;;;1.98;1.02;;;23.40;64.90;;;;;;4990055;28;20027;-48
2023/01/02 13:12:32;;;;;;;7.68;1.75;;;23.90;63.00;;;;;;4990046;28;20038;-48
2023/01/02 13:15:03;;;;;;;4.55;1.30;;;23.70;63.20;;;;;;4988521;28;20109;-44
2023/01/02 13:17:48;;;;;;;6.32;1.80;;;21.70;64.40;;;;;;4987011;28;20042;-44